Time;durP1;ratioP1;P1;durP2;ratioP2;P2;SDS_P1;SDS_P2;PMS_P1;PMS_P2;Temp;Humidity;BMP_temperature;BMP_pressure;BME280_temperature;BME280_humidity;BME280_pressure;Samples;Min_cycle;Max_cycle;Signal;HPM_P1;HPM_P2
2023/04/01 00:01:55;;;;;;;18.95;9.85;;;;;;;12.78;63.73;99025.84;5074880;28;20043;-64
2023/04/01 00:04:20;;;;;;;20.00;10.32;;;;;;;12.49;64.76;99028.69;5075430;28;20625;-69
2023/04/01 00:06:47;;;;;;;14.43;8.95;;;;;;;12.21;65.64;99043.69;5074089;28;20036;-69
2023/04/01 00:09:13;;;;;;;41.80;16.35;;;;;;;11.80;68.09;99044.31;5075232;28;20034;-69
2023/04/01 00:11:39;;;;;;;26.88;13.10;;;;;;;11.81;68.18;99038.81;5073765;28;20705;-68
2023/04/01 00:14:07;;;;;;;15.80;8.95;;;;;;;11.91;68.18;99040.34;5075147;28;20070;-69
2023/04/01 00:16:32;;;;;;;16.10;9.15;;;;;;;12.01;67.86;99049.63;5074381;28;20056;-68
2023/04/01 00:18:59;;;;;;;14.95;9.68;;;;;;;12.22;67.02;99035.56;5075231;28;20199;-68
2023/04/01 00:21:25;;;;;;;8.43;6.47;;;;;;;12.24;67.94;99043.31;5075050;28;20132;-69
2023/04/01 00:23:51;;;;;;;11.50;6.78;;;;;;;12.41;66.60;99042.06;5075299;28;20119;-64
2023/04/01 00:26:18;;;;;;;9.15;6.47;;;;;;;11.71;66.82;99032.94;5075584;28;20103;-65
2023/04/01 00:28:45;;;;;;;9.35;6.03;;;;;;;11.11;69.87;99031.34;5073898;28;20322;-68
2023/04/01 00:31:14;;;;;;;10.55;6.68;;;;;;;10.72;72.08;99030.75;5074892;28;20044;-68
2023/04/01 00:33:41;;;;;;;7.85;6.43;;;;;;;10.43;71.99;99026.22;5074001;28;20036;-64
2023/04/01 00:36:12;;;;;;;10.93;6.75;;;;;;;10.22;75.48;99021.56;5075885;28;20036;-68
2023/04/01 00:38:38;;;;;;;9.30;5.72;;;;;;;10.77;74.55;99034.50;5076516;28;20032;-65
2023/04/01 00:41:05;;;;;;;33.97;12.77;;;;;;;11.02;73.54;99034.25;5077231;28;20126;-68
2023/04/01 00:43:31;;;;;;;18.70;8.35;;;;;;;11.26;72.13;99041.13;5073940;28;20062;-64
2023/04/01 00:45:57;;;;;;;9.05;6.05;;;;;;;11.54;72.28;99044.78;5073977;28;20064;-65
2023/04/01 00:48:25;;;;;;;21.02;9.88;;;;;;;11.88;70.44;99041.53;5076161;28;20035;-64
2023/04/01 00:50:58;;;;;;;12.60;6.72;;;;;;;12.13;69.04;99034.84;5074072;28;20040;-68
2023/04/01 00:53:24;;;;;;;19.23;9.40;;;;;;;12.26;68.90;99042.13;5075357;28;20067;-65
2023/04/01 00:55:57;;;;;;;11.30;7.03;;;;;;;12.39;67.89;99036.94;5073834;28;20036;-65
2023/04/01 00:58:27;;;;;;;10.93;6.43;;;;;;;12.37;66.93;99035.47;5075105;28;20318;-64
2023/04/01 01:00:54;;;;;;;40.92;17.27;;;;;;;12.48;66.51;99034.97;5078480;28;20063;-68
2023/04/01 01:03:20;;;;;;;24.55;12.77;;;;;;;12.43;66.38;99026.75;5077377;28;20032;-68
2023/04/01 01:06:07;;;;;;;17.02;9.27;;;;;;;12.58;65.95;99032.84;5080283;28;20242;-65
2023/04/01 01:09:00;;;;;;;10.30;7.38;;;;;;;12.77;64.98;99032.16;5080586;28;20313;-64
2023/04/01 01:11:48;;;;;;;11.00;7.13;;;;;;;12.89;63.56;99029.78;5079486;28;20255;-68
2023/04/01 01:14:24;;;;;;;13.23;7.25;;;;;;;12.99;63.46;99032.94;5078620;28;20036;-66
2023/04/01 01:17:25;;;;;;;7.93;6.35;;;;;;;12.98;62.78;99025.16;5079148;28;22126;-65
2023/04/01 01:20:10;;;;;;;8.50;6.60;;;;;;;13.03;63.37;99033.34;5067211;28;20044;-65
2023/04/01 01:23:11;;;;;;;10.18;6.80;;;;;;;12.94;63.29;99039.84;5077476;28;20033;-64
2023/04/01 01:26:00;;;;;;;7.65;6.50;;;;;;;12.93;63.31;99039.03;5073827;28;20236;-68
2023/04/01 01:28:43;;;;;;;9.75;6.43;;;;;;;13.02;63.07;99034.38;5076461;28;20044;-65
2023/04/01 01:31:15;;;;;;;16.63;9.13;;;;;;;13.05;62.54;99026.00;5077876;28;20045;-69
2023/04/01 01:34:07;;;;;;;29.40;12.40;;;;;;;13.05;63.11;99024.19;5077716;28;20044;-64
2023/04/01 01:36:34;;;;;;;19.98;9.23;;;;;;;12.96;63.66;99022.69;5078245;28;20040;-65
2023/04/01 01:39:03;;;;;;;16.15;8.43;;;;;;;12.92;64.77;99016.13;5078889;28;20040;-68
2023/04/01 01:41:30;;;;;;;15.82;8.05;;;;;;;12.97;64.03;99019.00;5078109;28;20112;-64
2023/04/01 01:43:58;;;;;;;18.52;9.15;;;;;;;12.98;64.27;99007.38;5077051;28;20028;-69
2023/04/01 01:46:27;;;;;;;8.25;6.57;;;;;;;13.01;63.47;99006.97;5078138;28;20052;-65
2023/04/01 01:48:55;;;;;;;11.48;6.75;;;;;;;13.04;63.42;99005.75;5078559;28;20029;-69
2023/04/01 01:51:22;;;;;;;11.27;7.13;;;;;;;13.03;63.92;99006.78;5077409;28;20036;-65
2023/04/01 01:53:48;;;;;;;12.25;7.50;;;;;;;13.00;63.18;98993.88;5078055;28;20127;-65
2023/04/01 01:56:13;;;;;;;11.20;7.03;;;;;;;13.00;62.87;98994.72;5076773;28;20427;-69
2023/04/01 01:58:45;;;;;;;11.00;7.20;;;;;;;13.08;63.26;98989.22;5079140;28;20020;-68
2023/04/01 02:01:33;;;;;;;15.45;7.63;;;;;;;12.93;64.11;98990.38;5077522;28;20068;-65
2023/04/01 02:03:59;;;;;;;14.60;8.75;;;;;;;12.87;64.73;98988.50;5074901;28;20044;-64
2023/04/01 02:06:27;;;;;;;34.30;14.30;;;;;;;12.83;63.94;98980.09;5077817;28;20028;-68
2023/04/01 02:09:01;;;;;;;9.50;6.63;;;;;;;12.76;64.17;98987.19;5077245;28;20078;-65
2023/04/01 02:11:56;;;;;;;11.43;6.85;;;;;;;12.47;65.52;98983.69;5078023;28;20078;-68
2023/04/01 02:14:28;;;;;;;10.18;6.97;;;;;;;12.63;65.44;98989.75;5076936;28;20048;-69
2023/04/01 02:17:08;;;;;;;10.30;6.53;;;;;;;12.63;65.43;98985.28;5077654;28;20108;-65
2023/04/01 02:19:54;;;;;;;9.48;6.40;;;;;;;12.38;66.25;98987.50;5077788;28;20093;-65
2023/04/01 02:22:33;;;;;;;9.30;7.15;;;;;;;12.35;66.10;98990.53;5077856;28;20040;-69
2023/04/01 02:25:03;;;;;;;12.48;7.72;;;;;;;12.44;65.10;99002.66;5076976;28;20055;-69
2023/04/01 02:27:30;;;;;;;9.68;7.38;;;;;;;12.41;65.43;99004.88;5078531;28;20041;-66
2023/04/01 02:29:55;;;;;;;11.88;7.70;;;;;;;12.36;65.92;99007.28;5078412;28;20199;-69
2023/04/01 02:32:21;;;;;;;12.43;8.00;;;;;;;12.31;65.77;98999.09;5076454;28;20043;-65
2023/04/01 02:34:47;;;;;;;11.38;8.65;;;;;;;12.36;65.79;98989.53;5079265;28;20039;-65
2023/04/01 02:37:14;;;;;;;11.35;8.32;;;;;;;12.41;65.26;98984.47;5077873;28;20040;-68
2023/04/01 02:39:39;;;;;;;11.98;8.32;;;;;;;12.21;65.30;98991.44;5077384;28;20258;-63
2023/04/01 02:42:05;;;;;;;12.98;8.43;;;;;;;12.18;65.23;98983.03;5075899;28;20040;-68
2023/04/01 02:44:31;;;;;;;13.20;8.40;;;;;;;12.28;65.14;98991.50;5076975;28;21029;-68
2023/04/01 02:46:56;;;;;;;12.90;8.73;;;;;;;12.27;64.84;98993.34;5076344;28;20110;-64
2023/04/01 02:49:22;;;;;;;14.73;9.45;;;;;;;12.15;65.30;98987.72;5077143;28;20047;-68
2023/04/01 02:51:47;;;;;;;18.17;10.32;;;;;;;12.08;65.28;98988.66;5075923;28;20047;-68
2023/04/01 02:54:13;;;;;;;16.90;9.73;;;;;;;12.15;64.52;98986.91;5075156;28;20078;-68
2023/04/01 02:56:38;;;;;;;12.40;9.13;;;;;;;12.21;64.30;98993.28;5077022;28;20621;-64
2023/04/01 02:59:04;;;;;;;18.77;8.75;;;;;;;12.23;64.63;98991.25;5075963;28;20039;-68
2023/04/01 03:01:29;;;;;;;19.88;11.48;;;;;;;12.21;64.24;98988.78;5077338;28;20271;-68
2023/04/01 03:03:55;;;;;;;14.98;9.43;;;;;;;12.27;64.25;98981.91;5075843;28;20029;-65
2023/04/01 03:06:20;;;;;;;18.60;11.30;;;;;;;12.23;64.56;98986.75;5078498;28;20058;-65
2023/04/01 03:08:46;;;;;;;11.55;9.60;;;;;;;12.28;64.42;98981.69;5075650;28;20330;-68
2023/04/01 03:11:12;;;;;;;10.75;8.82;;;;;;;12.25;63.99;98966.16;5076694;28;20487;-68
2023/04/01 03:13:37;;;;;;;11.60;8.93;;;;;;;12.21;64.56;98966.72;5076205;28;20036;-68
2023/04/01 03:16:03;;;;;;;12.07;8.90;;;;;;;12.18;65.37;98962.63;5076483;28;20036;-68
2023/04/01 03:18:29;;;;;;;13.13;9.13;;;;;;;12.05;65.46;98968.66;5074526;28;20082;-64
2023/04/01 03:20:54;;;;;;;13.85;8.93;;;;;;;12.13;64.63;98967.69;5075254;28;20040;-68
2023/04/01 03:23:20;;;;;;;15.45;8.88;;;;;;;12.13;64.57;98983.63;5074614;28;20036;-68
2023/04/01 03:25:47;;;;;;;12.20;8.93;;;;;;;12.12;64.87;98985.44;5076488;28;20038;-68
2023/04/01 03:28:13;;;;;;;12.98;8.57;;;;;;;12.19;63.63;98977.53;5075401;28;20354;-64
2023/04/01 03:30:39;;;;;;;13.82;9.50;;;;;;;12.22;64.22;98973.69;5076076;28;20317;-68
2023/04/01 03:33:04;;;;;;;16.13;9.10;;;;;;;12.22;63.01;98966.53;5075803;28;20044;-68
2023/04/01 03:35:30;;;;;;;13.90;9.60;;;;;;;12.26;62.71;98959.03;5078384;28;20044;-65
2023/04/01 03:37:56;;;;;;;14.43;8.95;;;;;;;12.04;63.13;98958.22;5077384;28;20055;-64
2023/04/01 03:40:22;;;;;;;13.90;8.98;;;;;;;11.97;63.38;98965.28;5076321;28;20038;-67
2023/04/01 03:42:47;;;;;;;11.90;8.60;;;;;;;11.98;62.37;98958.97;5076403;28;20230;-68
2023/04/01 03:45:13;;;;;;;13.57;8.75;;;;;;;11.95;62.27;98956.72;5076944;28;20032;-64
2023/04/01 03:47:39;;;;;;;15.60;9.32;;;;;;;11.91;63.44;98950.97;5076493;28;20104;-65
2023/04/01 03:50:06;;;;;;;13.55;8.95;;;;;;;11.88;64.22;98946.03;5076934;28;20032;-68
2023/04/01 03:52:32;;;;;;;13.75;8.57;;;;;;;11.89;63.75;98939.72;5074643;28;20357;-68
2023/04/01 03:54:58;;;;;;;12.43;8.52;;;;;;;11.87;63.97;98936.44;5075262;28;20035;-64
2023/04/01 03:57:23;;;;;;;11.13;7.90;;;;;;;11.75;62.83;98941.38;5074966;28;20036;-68
2023/04/01 03:59:49;;;;;;;12.77;9.02;;;;;;;11.56;63.55;98941.19;5075222;28;20298;-64
2023/04/01 04:02:14;;;;;;;13.98;9.00;;;;;;;11.36;65.62;98939.09;5076118;28;20073;-68
2023/04/01 04:04:40;;;;;;;12.73;9.13;;;;;;;11.16;66.39;98940.69;5073906;28;20227;-68
2023/04/01 04:07:06;;;;;;;14.95;9.02;;;;;;;11.13;66.62;98941.91;5075222;28;20519;-68
2023/04/01 04:09:33;;;;;;;12.82;8.57;;;;;;;11.12;67.20;98934.13;5073456;28;20056;-65
2023/04/01 04:11:58;;;;;;;26.42;13.02;;;;;;;11.08;67.77;98924.91;5076166;28;20039;-64
2023/04/01 04:14:24;;;;;;;23.75;11.20;;;;;;;11.18;67.41;98928.09;5073288;28;20040;-64
2023/04/01 04:16:49;;;;;;;15.48;8.90;;;;;;;11.26;65.36;98935.94;5074827;28;20044;-70
2023/04/01 04:19:15;;;;;;;19.60;9.20;;;;;;;11.39;65.20;98943.22;5074009;28;20421;-68
2023/04/01 04:21:41;;;;;;;26.10;11.00;;;;;;;11.44;65.77;98939.03;5075503;28;20043;-68
2023/04/01 04:24:06;;;;;;;31.00;15.18;;;;;;;11.34;67.33;98938.47;5074795;28;20032;-64
2023/04/01 04:26:32;;;;;;;23.05;11.90;;;;;;;11.49;66.76;98941.13;5074875;28;20032;-68
2023/04/01 04:28:57;;;;;;;31.08;14.65;;;;;;;11.51;66.60;98942.56;5073917;28;20459;-68
2023/04/01 04:31:25;;;;;;;31.73;14.93;;;;;;;11.60;66.41;98943.28;5074415;28;20205;-64
2023/04/01 04:33:51;;;;;;;25.63;12.65;;;;;;;11.77;65.50;98946.50;5073610;28;20171;-63
2023/04/01 04:36:18;;;;;;;15.23;10.13;;;;;;;11.78;66.09;98951.66;5075559;28;20063;-64
2023/04/01 04:38:43;;;;;;;29.77;13.35;;;;;;;11.93;65.65;98958.72;5075594;28;20032;-65
2023/04/01 04:41:17;;;;;;;61.75;22.58;;;;;;;11.92;65.86;98957.09;5074748;28;20094;-65
2023/04/01 04:43:50;;;;;;;20.55;13.15;;;;;;;11.89;65.47;98955.63;5075911;28;20027;-65
2023/04/01 04:46:16;;;;;;;23.17;13.38;;;;;;;11.83;66.81;98943.13;5076420;28;20036;-66
2023/04/01 04:48:43;;;;;;;16.60;10.35;;;;;;;11.85;67.22;98946.41;5076141;28;20040;-68
2023/04/01 04:51:14;;;;;;;17.05;10.82;;;;;;;11.78;68.75;98945.53;5075747;28;20052;-65
2023/04/01 04:53:39;;;;;;;20.83;13.73;;;;;;;11.71;68.78;98944.59;5075942;28;20039;-68
2023/04/01 04:56:05;;;;;;;20.55;13.15;;;;;;;11.63;70.29;98948.19;5075639;28;20033;-64
2023/04/01 04:58:30;;;;;;;23.25;12.82;;;;;;;11.58;71.99;98947.94;5076042;28;20036;-64
2023/04/01 05:00:56;;;;;;;12.55;8.85;;;;;;;11.50;72.49;98948.88;5077725;28;20377;-68
2023/04/01 05:03:21;;;;;;;10.82;8.05;;;;;;;11.43;72.73;98941.84;5077011;28;20042;-66
2023/04/01 05:05:52;;;;;;;11.35;8.05;;;;;;;11.49;72.50;98951.72;5078389;28;20264;-65
2023/04/01 05:08:18;;;;;;;11.82;7.78;;;;;;;11.53;71.60;98953.00;5066118;28;20379;-68
2023/04/01 05:10:44;;;;;;;15.32;7.55;;;;;;;11.69;71.52;98949.28;5076794;28;20044;-65
2023/04/01 05:13:10;;;;;;;11.93;7.80;;;;;;;11.72;71.94;98938.28;5076518;28;20350;-65
2023/04/01 05:15:37;;;;;;;11.18;7.43;;;;;;;11.80;71.85;98940.84;5085069;28;20051;-68
2023/04/01 05:18:03;;;;;;;9.10;7.07;;;;;;;11.95;71.65;98932.84;5080608;28;20103;-64
2023/04/01 05:20:28;;;;;;;10.95;7.55;;;;;;;12.10;71.67;98936.22;5076957;28;20099;-68
2023/04/01 05:22:57;;;;;;;11.48;7.50;;;;;;;12.14;71.17;98935.66;5076734;28;20311;-65
2023/04/01 05:25:23;;;;;;;9.98;6.95;;;;;;;12.08;70.96;98930.28;5076899;28;20063;-68
2023/04/01 05:27:48;;;;;;;9.40;7.15;;;;;;;11.99;71.82;98926.94;5068617;28;20040;-64
2023/04/01 05:30:14;;;;;;;11.52;7.85;;;;;;;12.05;72.15;98923.53;5075637;28;20256;-65
2023/04/01 05:32:40;;;;;;;13.13;8.60;;;;;;;12.18;71.75;98925.47;5075383;28;20246;-69
2023/04/01 05:35:06;;;;;;;13.43;7.72;;;;;;;12.33;71.58;98925.38;5074795;28;20029;-65
2023/04/01 05:37:34;;;;;;;10.93;8.48;;;;;;;12.39;71.11;98925.44;5075876;28;20415;-68
2023/04/01 05:39:59;;;;;;;11.60;7.43;;;;;;;12.55;70.34;98921.69;5074811;28;20192;-69
2023/04/01 05:42:25;;;;;;;10.75;7.97;;;;;;;12.66;69.98;98923.78;5072372;28;20050;-64
2023/04/01 05:44:51;;;;;;;13.68;7.88;;;;;;;12.78;69.11;98908.94;5076870;28;20330;-69
2023/04/01 05:47:16;;;;;;;12.43;7.30;;;;;;;12.82;69.87;98906.72;5078851;28;20047;-69
2023/04/01 05:49:41;;;;;;;11.65;7.20;;;;;;;12.92;69.43;98895.72;5077771;28;20036;-68
2023/04/01 05:52:07;;;;;;;11.60;7.47;;;;;;;12.89;68.98;98896.13;5079169;28;20048;-69
2023/04/01 05:54:33;;;;;;;11.18;6.82;;;;;;;12.60;70.36;98891.88;5078897;28;20924;-64
2023/04/01 05:56:58;;;;;;;10.55;7.32;;;;;;;12.25;72.61;98891.03;5078111;28;20094;-69
2023/04/01 05:59:24;;;;;;;11.57;8.23;;;;;;;11.95;75.08;98877.94;5076776;28;20028;-69
2023/04/01 06:01:49;;;;;;;11.20;8.20;;;;;;;11.88;76.17;98871.75;5076965;28;20044;-68
2023/04/01 06:04:17;;;;;;;14.38;9.02;;;;;;;11.62;77.46;98864.38;5078799;28;20299;-65
2023/04/01 06:06:43;;;;;;;12.05;7.63;;;;;;;11.20;79.40;98851.88;5079596;28;20044;-65
2023/04/01 06:09:29;;;;;;;10.30;6.68;;;;;;;11.12;79.96;98849.34;5075686;28;20025;-68
2023/04/01 06:12:06;;;;;;;11.80;7.72;;;;;;;11.17;81.45;98857.56;5074520;28;20123;-66
2023/04/01 06:14:50;;;;;;;12.10;6.95;;;;;;;11.28;79.89;98865.00;5074017;28;20047;-69
2023/04/01 06:17:39;;;;;;;13.77;8.40;;;;;;;11.09;81.47;98849.72;5075026;28;20036;-69
2023/04/01 06:20:20;;;;;;;9.10;7.60;;;;;;;11.09;81.27;98861.13;5075694;28;20108;-69
2023/04/01 06:22:55;;;;;;;11.52;8.98;;;;;;;11.49;79.93;98850.97;5075440;28;20408;-65
2023/04/01 06:25:27;;;;;;;16.15;10.07;;;;;;;11.41;81.41;98861.69;5075240;28;20246;-64
2023/04/01 06:27:55;;;;;;;11.77;7.55;;;;;;;11.82;78.63;98862.72;5076512;28;20055;-69
2023/04/01 06:30:33;;;;;;;12.43;7.88;;;;;;;11.59;81.37;98851.47;5076424;28;20032;-65
2023/04/01 06:33:29;;;;;;;12.77;7.82;;;;;;;11.39;83.74;98839.84;5077672;28;20306;-68
2023/04/01 06:36:04;;;;;;;15.25;8.20;;;;;;;11.07;85.78;98826.06;5077056;28;20049;-66
2023/04/01 06:38:38;;;;;;;11.98;8.68;;;;;;;11.00;87.44;98832.31;5077224;28;20053;-69
2023/04/01 06:41:18;;;;;;;14.95;8.85;;;;;;;10.99;88.53;98852.66;5076107;28;20082;-69
2023/04/01 06:44:12;;;;;;;13.80;9.13;;;;;;;11.04;87.77;98849.47;5075534;28;20036;-69
2023/04/01 06:46:49;;;;;;;13.50;9.63;;;;;;;11.12;89.67;98850.16;5066004;28;20048;-69
2023/04/01 06:49:41;;;;;;;13.45;8.82;;;;;;;10.96;88.23;98845.09;5075092;28;20369;-69
2023/04/01 06:52:15;;;;;;;13.38;7.53;;;;;;;11.10;87.93;98843.41;5075897;28;20058;-65
2023/04/01 06:55:01;;;;;;;10.55;6.80;;;;;;;11.20;85.83;98841.28;5074435;28;20044;-65
2023/04/01 06:57:32;;;;;;;10.95;6.72;;;;;;;11.31;86.37;98848.72;5075523;28;20032;-69
2023/04/01 07:00:01;;;;;;;13.60;6.93;;;;;;;11.14;86.39;98837.56;5074915;28;20328;-69
2023/04/01 07:02:59;;;;;;;9.73;7.05;;;;;;;11.48;84.92;98842.22;5075617;28;20048;-66
2023/04/01 07:05:31;;;;;;;11.40;6.65;;;;;;;11.63;85.46;98855.41;5072561;28;20036;-65
2023/04/01 07:07:59;;;;;;;11.02;6.72;;;;;;;11.99;81.99;98852.66;5074130;28;20641;-65
2023/04/01 07:10:52;;;;;;;11.35;6.90;;;;;;;12.03;82.66;98834.53;5073166;28;20043;-65
2023/04/01 07:13:24;;;;;;;16.67;8.25;;;;;;;12.31;82.15;98831.84;5072465;28;20067;-69
2023/04/01 07:16:16;;;;;;;9.35;7.18;;;;;;;12.23;82.11;98827.50;5072695;28;20053;-69
2023/04/01 07:18:48;;;;;;;10.15;6.85;;;;;;;12.18;82.02;98827.28;5073598;28;20040;-65
2023/04/01 07:21:41;;;;;;;13.20;7.78;;;;;;;12.22;81.34;98817.91;5075706;28;20063;-65
2023/04/01 07:24:17;;;;;;;11.38;6.93;;;;;;;12.10;80.85;98824.78;5072183;28;20220;-69
2023/04/01 07:26:42;;;;;;;10.65;6.38;;;;;;;12.43;81.33;98828.44;5073262;28;20145;-69
2023/04/01 07:29:13;;;;;;;11.35;6.53;;;;;;;12.68;79.36;98817.38;5074978;28;20114;-69
2023/04/01 07:32:07;;;;;;;8.27;6.22;;;;;;;13.09;77.76;98807.47;5073444;28;20371;-69
2023/04/01 07:34:50;;;;;;;10.97;6.43;;;;;;;12.99;75.99;98809.72;5074156;28;20044;-69
2023/04/01 07:37:37;;;;;;;8.20;5.90;;;;;;;12.92;76.25;98800.91;5072859;28;20051;-64
2023/04/01 07:40:14;;;;;;;7.53;5.72;;;;;;;12.93;74.82;98789.25;5073163;28;20041;-65
2023/04/01 07:42:46;;;;;;;7.60;5.70;;;;;;;12.99;77.18;98787.63;5072818;28;20072;-69
2023/04/01 07:45:45;;;;;;;7.30;4.90;;;;;;;13.22;74.46;98784.63;5073307;28;20036;-65
2023/04/01 07:48:13;;;;;;;6.95;4.55;;;;;;;13.21;74.87;98778.50;5073332;28;20063;-69
2023/04/01 07:50:48;;;;;;;7.40;4.60;;;;;;;13.34;73.73;98775.84;5074049;28;20037;-68
2023/04/01 07:53:28;;;;;;;6.55;4.15;;;;;;;13.26;75.76;98775.22;5073827;28;20058;-65
2023/04/01 07:56:03;;;;;;;8.00;4.70;;;;;;;13.24;75.31;98769.31;5075282;28;20051;-69
2023/04/01 07:58:47;;;;;;;6.47;4.85;;;;;;;13.36;76.45;98779.13;5074949;28;20046;-65
2023/04/01 08:01:30;;;;;;;8.55;5.22;;;;;;;13.27;74.81;98783.00;5072634;28;20040;-66
2023/04/01 08:04:11;;;;;;;9.77;5.28;;;;;;;13.42;74.87;98788.13;5074111;28;20036;-65
2023/04/01 08:06:45;;;;;;;14.63;9.00;;;;;;;13.53;74.05;98779.59;5072100;28;20033;-69
2023/04/01 08:09:34;;;;;;;15.38;8.63;;;;;;;13.56;74.01;98765.06;5074736;28;20617;-65
2023/04/01 08:12:00;;;;;;;12.88;7.03;;;;;;;13.68;75.85;98768.72;5071985;28;20083;-65
2023/04/01 08:14:47;;;;;;;9.50;6.43;;;;;;;13.57;73.79;98769.34;5074705;28;20112;-69
2023/04/01 08:17:21;;;;;;;11.05;7.00;;;;;;;13.64;73.63;98760.34;5075305;28;20048;-65
2023/04/01 08:20:04;;;;;;;7.78;5.57;;;;;;;13.81;73.76;98754.59;5075220;28;20108;-69
2023/04/01 08:22:41;;;;;;;9.43;5.35;;;;;;;13.73;73.35;98745.81;5074333;28;20061;-69
2023/04/01 08:25:13;;;;;;;8.80;5.40;;;;;;;13.67;73.40;98737.84;5074675;28;20116;-65
2023/04/01 08:27:45;;;;;;;7.65;5.80;;;;;;;13.78;74.17;98741.72;5074866;28;20124;-65
2023/04/01 08:30:22;;;;;;;11.80;6.03;;;;;;;13.94;72.45;98731.44;5074382;28;20048;-66
2023/04/01 08:33:05;;;;;;;11.15;6.05;;;;;;;13.70;73.56;98729.44;5075910;28;20048;-65
2023/04/01 08:35:38;;;;;;;11.63;5.60;;;;;;;13.73;74.42;98719.19;5075839;28;20207;-68
2023/04/01 08:38:12;;;;;;;10.05;5.50;;;;;;;13.68;73.79;98724.31;5075538;28;20346;-66
2023/04/01 08:41:00;;;;;;;8.55;5.13;;;;;;;13.65;74.35;98722.09;5075512;28;20059;-69
2023/04/01 08:44:03;;;;;;;9.88;4.70;;;;;;;13.70;74.46;98718.81;5075550;28;20036;-69
2023/04/01 08:47:00;;;;;;;6.90;4.75;;;;;;;13.87;74.04;98703.22;5075810;28;20048;-69
2023/04/01 08:49:47;;;;;;;7.43;5.22;;;;;;;13.94;73.79;98710.16;5075449;28;20139;-69
2023/04/01 08:52:34;;;;;;;7.30;5.20;;;;;;;14.01;73.06;98691.50;5074947;28;20116;-66
2023/04/01 08:55:15;;;;;;;8.88;5.30;;;;;;;14.06;72.20;98689.03;5074298;28;20032;-66
2023/04/01 08:58:16;;;;;;;8.13;5.15;;;;;;;14.06;72.60;98679.19;5074257;28;20335;-66
2023/04/01 09:00:54;;;;;;;7.18;4.90;;;;;;;14.14;72.28;98674.66;5074044;28;20037;-69
2023/04/01 09:03:44;;;;;;;10.18;5.28;;;;;;;14.45;71.25;98671.28;5074796;28;20448;-69
2023/04/01 09:06:50;;;;;;;7.97;5.40;;;;;;;14.53;69.97;98668.38;5074294;28;20059;-67
2023/04/01 09:09:39;;;;;;;6.68;5.45;;;;;;;14.72;70.62;98664.81;5054959;28;20327;-66
2023/04/01 09:12:21;;;;;;;8.43;5.45;;;;;;;14.72;69.88;98662.13;5075694;28;20033;-66
2023/04/01 09:15:01;;;;;;;8.02;5.07;;;;;;;14.82;69.31;98659.81;5074877;28;20044;-65
2023/04/01 09:17:56;;;;;;;8.50;5.18;;;;;;;14.80;70.19;98648.56;5076837;28;20063;-66
2023/04/01 09:20:47;;;;;;;10.40;5.82;;;;;;;14.95;69.41;98633.06;5081061;28;20063;-69
2023/04/01 09:23:21;;;;;;;8.40;5.45;;;;;;;15.00;70.24;98627.91;5080655;28;20103;-69
2023/04/01 09:26:24;;;;;;;11.55;6.15;;;;;;;15.00;68.83;98635.06;5078694;28;20417;-69
2023/04/01 09:29:01;;;;;;;9.90;5.90;;;;;;;15.06;69.23;98615.53;5079612;28;20085;-69
2023/04/01 09:31:55;;;;;;;8.68;6.15;;;;;;;14.99;68.91;98599.59;5080002;28;20049;-69
2023/04/01 09:34:54;;;;;;;12.23;6.45;;;;;;;15.10;69.10;98603.41;5079468;28;20048;-66
2023/04/01 09:37:42;;;;;;;8.98;5.47;;;;;;;15.25;68.15;98592.41;5066387;28;20036;-69
2023/04/01 09:40:26;;;;;;;15.75;6.35;;;;;;;15.42;67.39;98596.13;5072200;28;20078;-63
2023/04/01 09:43:14;;;;;;;;;;;;;;;15.51;66.78;98584.13;5080396;28;20332;-67
2023/04/01 09:45:58;;;;;;;7.65;5.32;;;;;;;15.68;67.04;98588.94;5071362;28;20187;-69
2023/04/01 09:48:36;;;;;;;7.95;5.32;;;;;;;15.82;66.24;98585.06;5081675;28;20040;-69
2023/04/01 09:51:05;;;;;;;8.30;5.72;;;;;;;15.94;66.25;98597.44;5080676;28;20040;-69
2023/04/01 09:53:49;;;;;;;9.45;5.93;;;;;;;16.04;65.32;98594.25;5079826;28;20051;-69
2023/04/01 09:56:33;;;;;;;9.50;5.43;;;;;;;16.17;65.44;98586.06;5080576;28;20283;-69
2023/04/01 09:59:29;;;;;;;9.90;6.35;;;;;;;16.27;64.21;98572.97;5080019;28;20409;-66
2023/04/01 10:02:13;;;;;;;13.35;6.68;;;;;;;16.26;64.52;98570.53;5076473;28;20330;-66
2023/04/01 10:04:57;;;;;;;7.85;5.93;;;;;;;15.96;65.20;98567.84;5074803;28;20036;-69
2023/04/01 10:07:34;;;;;;;8.88;5.75;;;;;;;16.17;64.72;98571.88;5075250;28;20036;-66
2023/04/01 10:10:19;;;;;;;9.95;6.07;;;;;;;16.16;65.25;98563.06;5075751;28;20134;-66
2023/04/01 10:13:06;;;;;;;10.00;6.03;;;;;;;16.33;64.14;98546.38;5076367;28;20044;-69
2023/04/01 10:16:10;;;;;;;10.23;6.22;;;;;;;16.37;64.17;98535.03;5076088;28;20044;-66
2023/04/01 10:19:12;;;;;;;11.65;5.97;;;;;;;16.47;64.40;98535.28;5072114;28;20086;-70
2023/04/01 10:22:16;;;;;;;8.27;6.22;;;;;;;16.48;64.19;98522.72;5076511;28;20085;-65
2023/04/01 10:24:45;;;;;;;9.57;6.53;;;;;;;16.33;64.14;98523.16;5074471;28;20087;-65
2023/04/01 10:27:32;;;;;;;11.18;6.00;;;;;;;16.46;64.79;98516.81;5075010;28;20040;-69
2023/04/01 10:30:00;;;;;;;11.15;5.90;;;;;;;16.58;63.15;98507.75;5074321;28;20036;-67
2023/04/01 10:32:56;;;;;;;10.32;6.97;;;;;;;16.69;62.75;98503.53;5073328;28;20361;-66
2023/04/01 10:35:43;;;;;;;11.65;6.70;;;;;;;16.68;63.69;98501.91;5074559;28;20040;-66
2023/04/01 10:38:41;;;;;;;10.35;6.30;;;;;;;16.73;63.13;98493.19;5074155;28;20032;-69
2023/04/01 10:41:33;;;;;;;8.40;5.78;;;;;;;16.63;63.85;98474.19;5072676;28;20040;-66
2023/04/01 10:44:23;;;;;;;9.95;6.50;;;;;;;16.76;63.40;98476.69;5073475;28;20364;-66
2023/04/01 10:47:16;;;;;;;8.32;6.25;;;;;;;16.82;63.16;98471.22;5076118;28;20309;-66
2023/04/01 10:49:48;;;;;;;9.43;6.30;;;;;;;16.94;62.30;98457.84;5077692;28;20051;-66
2023/04/01 10:52:32;;;;;;;8.75;6.25;;;;;;;17.05;61.92;98440.97;5074627;28;20040;-66
2023/04/01 10:55:22;;;;;;;11.05;5.95;;;;;;;17.03;64.33;98419.00;5073535;28;20036;-66
2023/04/01 10:57:54;;;;;;;7.03;5.18;;;;;;;16.96;62.72;98420.19;5075203;28;20033;-69
2023/04/01 11:00:37;;;;;;;9.57;5.30;;;;;;;17.08;62.87;98415.63;5074822;28;20083;-66
2023/04/01 11:03:29;;;;;;;9.18;5.25;;;;;;;17.06;61.80;98389.13;5074274;28;20276;-66
2023/04/01 11:06:16;;;;;;;8.73;5.22;;;;;;;17.09;61.62;98394.00;5072660;28;20394;-69
2023/04/01 11:09:12;;;;;;;8.55;5.53;;;;;;;17.06;62.47;98397.13;5074169;28;20108;-66
2023/04/01 11:11:59;;;;;;;7.38;6.18;;;;;;;17.11;61.97;98388.41;5076108;28;20367;-69
2023/04/01 11:14:43;;;;;;;9.15;5.10;;;;;;;17.13;62.39;98394.31;5075664;28;20334;-66
2023/04/01 11:17:08;;;;;;;;;;;;;;;17.29;62.10;98387.41;5076072;28;20080;-69
2023/04/01 11:19:43;;;;;;;9.02;4.82;;;;;;;17.30;61.85;98378.34;5073561;28;19920;-66
2023/04/01 11:22:26;;;;;;;8.35;4.85;;;;;;;17.39;61.62;98368.88;5073474;28;20418;-65
2023/04/01 11:25:29;;;;;;;7.75;5.20;;;;;;;17.41;62.56;98364.91;5074337;28;20040;-66
2023/04/01 11:28:15;;;;;;;9.90;5.07;;;;;;;17.46;60.85;98370.34;5074561;28;20044;-69
2023/04/01 11:31:03;;;;;;;9.70;5.35;;;;;;;17.55;61.62;98365.44;5075456;28;20394;-67
2023/04/01 11:33:36;;;;;;;8.40;4.85;;;;;;;17.61;63.24;98372.50;5074663;28;20035;-66
2023/04/01 11:36:39;;;;;;;8.07;4.82;;;;;;;17.60;64.03;98370.88;5074181;28;20040;-69
2023/04/01 11:39:10;;;;;;;15.13;8.02;;;;;;;17.42;63.11;98357.69;5074646;28;20032;-70
2023/04/01 11:42:13;;;;;;;9.00;4.53;;;;;;;17.28;63.39;98345.66;5072620;28;20040;-66
2023/04/01 11:45:13;;;;;;;8.00;4.82;;;;;;;17.26;63.57;98337.06;5075961;28;20032;-69
2023/04/01 11:47:53;;;;;;;6.85;4.70;;;;;;;17.20;64.63;98322.78;5075606;28;20040;-70
2023/04/01 11:50:31;;;;;;;6.22;4.63;;;;;;;17.24;63.53;98315.91;5075225;28;20040;-69
2023/04/01 11:53:21;;;;;;;7.82;4.47;;;;;;;17.16;64.89;98311.75;5073917;28;20234;-66
2023/04/01 11:55:58;;;;;;;8.77;4.50;;;;;;;17.34;64.42;98304.56;5075968;28;20203;-67
2023/04/01 11:58:48;;;;;;;9.90;4.57;;;;;;;17.26;64.66;98308.44;5074571;28;20090;-66
2023/04/01 12:01:14;;;;;;;6.60;4.85;;;;;;;17.45;63.87;98311.72;5074313;28;20086;-70
2023/04/01 12:04:01;;;;;;;8.70;5.18;;;;;;;17.52;64.32;98293.66;5074381;28;20108;-66
2023/04/01 12:07:02;;;;;;;9.82;5.70;;;;;;;17.59;63.87;98293.50;5074210;28;20040;-66